Rechercher aéroport 
image banner adimage banner adimage banner ad
image banner ad

CL27 - Wells Fargo-El Monte

Situé à El Monte, United States

ICAO - CL27, IATA -

Données fournies par Airmate  

Information générale

Coordonnées: N34°4'13" W118°4'19"
Élévation : 261 feet MSL.
Variation magnétique : 14° East
Voir autres Aéroports à California

Données opérationnelles

Special qualification required
Heure actuelle UTC:
Heure actuelle locale:
Météo à : KEMT - San Gabriel Valley ( 4 km )
METAR: KEMT 212345Z 21006KT 10SM CLR 37/09 A2999 RMK RY01 PAPI OTS
Voir NOTAMs / SUP AIP / TFR affectant cet aéroport [VIEW]
Fréquences de communication: [VIEW]

Pistes:

Coordonnées de l'aéroport

Adresse: El Monte United States

Vue satellite de CL27